La Paz, Honduras
Current Conditions -  °F | °C
As of 3:00 PM on Wednesday 22 Oct 2014 (Local Time) from MHTG Reporting Station
Broken Clouds Broken Clouds  
Wind Chill: 79°   Ceiling: 9000
Heat Index: 81°   Visibility: 6mi
Dew Point: 68°   Wind: 7mph
Humidity: 69%   Direction: 150°SSE
Pressure: 29.94"   Gusts: NA
Location:  14.2°N, 87.4°W
Report Text: MHTG 222100Z 15006KT 9999 SCT025TCU BKN090 26/20 Q1014 A2994 NOSIG
Loading
Personal Weather Stations






























Interactive Weather Map New forecast layout! Learn more

10-Day Weather Forecast

Advertisements
Track Severe Weather on mobile